sensor_id;sensor_type;location;lat;lon;timestamp;temperature;humidity
38325;DHT22;24126;52.672;13.622;2023-06-04T00:01:05;17.00;39.20
38325;DHT22;24126;52.672;13.622;2023-06-04T00:03:33;17.00;39.00
38325;DHT22;24126;52.672;13.622;2023-06-04T00:06:00;17.00;39.10
38325;DHT22;24126;52.672;13.622;2023-06-04T00:08:27;16.90;39.40
38325;DHT22;24126;52.672;13.622;2023-06-04T00:10:55;16.90;39.10
38325;DHT22;24126;52.672;13.622;2023-06-04T00:13:22;16.90;39.10
38325;DHT22;24126;52.672;13.622;2023-06-04T00:15:49;16.90;39.40
38325;DHT22;24126;52.672;13.622;2023-06-04T00:18:16;16.80;39.40
38325;DHT22;24126;52.672;13.622;2023-06-04T00:20:43;16.80;39.50
38325;DHT22;24126;52.672;13.622;2023-06-04T00:23:10;16.70;39.70
38325;DHT22;24126;52.672;13.622;2023-06-04T00:25:37;16.60;40.40
38325;DHT22;24126;52.672;13.622;2023-06-04T00:28:04;16.60;40.40
38325;DHT22;24126;52.672;13.622;2023-06-04T00:30:31;16.50;40.30
38325;DHT22;24126;52.672;13.622;2023-06-04T00:32:59;16.50;40.40
38325;DHT22;24126;52.672;13.622;2023-06-04T00:35:26;16.50;40.80
38325;DHT22;24126;52.672;13.622;2023-06-04T00:37:53;16.40;40.70
38325;DHT22;24126;52.672;13.622;2023-06-04T00:40:21;16.30;41.10
38325;DHT22;24126;52.672;13.622;2023-06-04T00:42:48;16.30;41.10
38325;DHT22;24126;52.672;13.622;2023-06-04T00:45:15;16.20;41.40
38325;DHT22;24126;52.672;13.622;2023-06-04T00:47:44;16.20;41.50
38325;DHT22;24126;52.672;13.622;2023-06-04T00:50:11;16.20;41.40
38325;DHT22;24126;52.672;13.622;2023-06-04T00:52:38;16.10;41.50
38325;DHT22;24126;52.672;13.622;2023-06-04T00:55:06;16.10;41.80
38325;DHT22;24126;52.672;13.622;2023-06-04T00:57:33;16.00;42.00
38325;DHT22;24126;52.672;13.622;2023-06-04T01:00:00;16.00;42.40
38325;DHT22;24126;52.672;13.622;2023-06-04T01:02:28;15.90;42.30
38325;DHT22;24126;52.672;13.622;2023-06-04T01:05:06;15.80;42.50
38325;DHT22;24126;52.672;13.622;2023-06-04T01:07:37;15.80;42.80
38325;DHT22;24126;52.672;13.622;2023-06-04T01:10:06;15.80;42.90
38325;DHT22;24126;52.672;13.622;2023-06-04T01:12:33;15.70;42.70
38325;DHT22;24126;52.672;13.622;2023-06-04T01:15:01;15.60;43.00
38325;DHT22;24126;52.672;13.622;2023-06-04T01:22:52;15.50;43.20
38325;DHT22;24126;52.672;13.622;2023-06-04T01:25:33;15.40;43.30
38325;DHT22;24126;52.672;13.622;2023-06-04T01:28:03;15.40;43.70
38325;DHT22;24126;52.672;13.622;2023-06-04T01:30:31;15.40;43.60
38325;DHT22;24126;52.672;13.622;2023-06-04T01:32:59;15.30;43.70
38325;DHT22;24126;52.672;13.622;2023-06-04T01:35:26;15.20;43.80
38325;DHT22;24126;52.672;13.622;2023-06-04T01:37:54;15.10;44.00
38325;DHT22;24126;52.672;13.622;2023-06-04T01:40:22;15.10;44.10
38325;DHT22;24126;52.672;13.622;2023-06-04T01:42:49;15.00;44.20
38325;DHT22;24126;52.672;13.622;2023-06-04T01:45:17;15.10;44.30
38325;DHT22;24126;52.672;13.622;2023-06-04T01:47:44;15.00;44.80
38325;DHT22;24126;52.672;13.622;2023-06-04T01:50:11;15.00;44.70
38325;DHT22;24126;52.672;13.622;2023-06-04T01:52:39;15.00;45.30
38325;DHT22;24126;52.672;13.622;2023-06-04T01:55:08;15.00;44.70
38325;DHT22;24126;52.672;13.622;2023-06-04T01:57:35;14.90;44.80
38325;DHT22;24126;52.672;13.622;2023-06-04T02:00:03;14.80;45.60
38325;DHT22;24126;52.672;13.622;2023-06-04T02:02:39;14.80;45.30
38325;DHT22;24126;52.672;13.622;2023-06-04T02:05:07;14.70;45.20
38325;DHT22;24126;52.672;13.622;2023-06-04T02:07:38;14.70;45.30
38325;DHT22;24126;52.672;13.622;2023-06-04T02:10:09;14.70;45.30
38325;DHT22;24126;52.672;13.622;2023-06-04T02:12:37;14.60;45.40
38325;DHT22;24126;52.672;13.622;2023-06-04T02:15:05;14.60;45.50
38325;DHT22;24126;52.672;13.622;2023-06-04T02:17:32;14.60;45.50
38325;DHT22;24126;52.672;13.622;2023-06-04T02:20:03;14.50;45.60
38325;DHT22;24126;52.672;13.622;2023-06-04T02:22:31;14.50;45.70
38325;DHT22;24126;52.672;13.622;2023-06-04T02:25:00;14.50;45.80
38325;DHT22;24126;52.672;13.622;2023-06-04T02:27:27;14.40;45.90
38325;DHT22;24126;52.672;13.622;2023-06-04T02:29:54;14.40;46.40
38325;DHT22;24126;52.672;13.622;2023-06-04T02:32:21;14.40;46.70
38325;DHT22;24126;52.672;13.622;2023-06-04T02:34:48;14.30;46.40
38325;DHT22;24126;52.672;13.622;2023-06-04T02:37:15;14.30;46.60
38325;DHT22;24126;52.672;13.622;2023-06-04T02:39:42;14.30;46.70
38325;DHT22;24126;52.672;13.622;2023-06-04T02:42:10;14.20;46.70
38325;DHT22;24126;52.672;13.622;2023-06-04T02:44:37;14.20;46.80
38325;DHT22;24126;52.672;13.622;2023-06-04T02:47:04;14.10;47.10
38325;DHT22;24126;52.672;13.622;2023-06-04T02:49:31;14.10;47.30
38325;DHT22;24126;52.672;13.622;2023-06-04T02:51:58;14.10;47.20
38325;DHT22;24126;52.672;13.622;2023-06-04T02:54:25;14.00;47.30
38325;DHT22;24126;52.672;13.622;2023-06-04T02:56:52;14.00;47.90
38325;DHT22;24126;52.672;13.622;2023-06-04T02:59:19;14.00;47.90
38325;DHT22;24126;52.672;13.622;2023-06-04T03:01:46;13.90;48.30
38325;DHT22;24126;52.672;13.622;2023-06-04T03:04:13;13.90;48.50
38325;DHT22;24126;52.672;13.622;2023-06-04T03:06:41;13.80;48.50
38325;DHT22;24126;52.672;13.622;2023-06-04T03:09:11;13.80;48.90
38325;DHT22;24126;52.672;13.622;2023-06-04T03:11:38;13.80;48.80
38325;DHT22;24126;52.672;13.622;2023-06-04T03:14:05;13.80;48.70
38325;DHT22;24126;52.672;13.622;2023-06-04T03:16:32;13.70;48.90
38325;DHT22;24126;52.672;13.622;2023-06-04T03:18:59;13.70;48.80
38325;DHT22;24126;52.672;13.622;2023-06-04T03:21:27;13.70;48.80
38325;DHT22;24126;52.672;13.622;2023-06-04T03:23:54;13.70;48.80
38325;DHT22;24126;52.672;13.622;2023-06-04T03:26:21;13.70;48.80
38325;DHT22;24126;52.672;13.622;2023-06-04T03:28:48;13.80;48.90
38325;DHT22;24126;52.672;13.622;2023-06-04T03:31:18;13.80;48.80
38325;DHT22;24126;52.672;13.622;2023-06-04T03:33:46;13.80;48.80
38325;DHT22;24126;52.672;13.622;2023-06-04T03:36:14;13.80;48.80
38325;DHT22;24126;52.672;13.622;2023-06-04T03:38:42;13.80;48.70
38325;DHT22;24126;52.672;13.622;2023-06-04T03:41:12;13.90;48.90
38325;DHT22;24126;52.672;13.622;2023-06-04T03:43:40;13.90;49.00
38325;DHT22;24126;52.672;13.622;2023-06-04T03:46:10;13.90;49.50
38325;DHT22;24126;52.672;13.622;2023-06-04T03:48:37;13.90;49.60
38325;DHT22;24126;52.672;13.622;2023-06-04T03:51:04;14.00;49.40
38325;DHT22;24126;52.672;13.622;2023-06-04T03:53:32;14.00;49.30
38325;DHT22;24126;52.672;13.622;2023-06-04T03:56:00;14.10;49.20
38325;DHT22;24126;52.672;13.622;2023-06-04T03:58:28;14.20;49.20
38325;DHT22;24126;52.672;13.622;2023-06-04T04:00:56;14.30;49.40
38325;DHT22;24126;52.672;13.622;2023-06-04T04:03:23;14.60;49.40
38325;DHT22;24126;52.672;13.622;2023-06-04T04:05:51;15.10;49.10
38325;DHT22;24126;52.672;13.622;2023-06-04T04:08:19;15.70;48.50
38325;DHT22;24126;52.672;13.622;2023-06-04T04:10:47;16.30;47.50
38325;DHT22;24126;52.672;13.622;2023-06-04T04:13:14;17.10;46.30
38325;DHT22;24126;52.672;13.622;2023-06-04T04:15:42;17.90;45.00
38325;DHT22;24126;52.672;13.622;2023-06-04T04:18:09;18.60;43.70
38325;DHT22;24126;52.672;13.622;2023-06-04T04:20:37;19.40;42.20
38325;DHT22;24126;52.672;13.622;2023-06-04T04:23:07;20.20;40.90
38325;DHT22;24126;52.672;13.622;2023-06-04T04:25:36;21.10;39.40
38325;DHT22;24126;52.672;13.622;2023-06-04T04:28:05;21.90;37.50
38325;DHT22;24126;52.672;13.622;2023-06-04T04:30:36;22.70;36.00
38325;DHT22;24126;52.672;13.622;2023-06-04T04:33:04;23.40;34.40
38325;DHT22;24126;52.672;13.622;2023-06-04T04:35:36;24.00;33.10
38325;DHT22;24126;52.672;13.622;2023-06-04T04:38:05;24.50;32.00
38325;DHT22;24126;52.672;13.622;2023-06-04T04:40:39;24.70;31.20
38325;DHT22;24126;52.672;13.622;2023-06-04T04:43:08;24.80;30.80
38325;DHT22;24126;52.672;13.622;2023-06-04T04:45:36;24.70;30.70
38325;DHT22;24126;52.672;13.622;2023-06-04T04:48:05;24.40;31.10
38325;DHT22;24126;52.672;13.622;2023-06-04T04:50:32;24.00;31.80
38325;DHT22;24126;52.672;13.622;2023-06-04T04:53:00;23.60;32.60
38325;DHT22;24126;52.672;13.622;2023-06-04T04:55:28;23.10;33.60
38325;DHT22;24126;52.672;13.622;2023-06-04T04:57:55;22.70;34.30
38325;DHT22;24126;52.672;13.622;2023-06-04T05:00:24;22.40;35.10
38325;DHT22;24126;52.672;13.622;2023-06-04T05:02:54;22.00;35.80
38325;DHT22;24126;52.672;13.622;2023-06-04T05:05:21;21.70;36.60
38325;DHT22;24126;52.672;13.622;2023-06-04T05:07:49;21.50;37.10
38325;DHT22;24126;52.672;13.622;2023-06-04T05:10:18;21.10;38.20
38325;DHT22;24126;52.672;13.622;2023-06-04T05:12:52;20.80;38.40
38325;DHT22;24126;52.672;13.622;2023-06-04T05:15:21;20.60;39.20
38325;DHT22;24126;52.672;13.622;2023-06-04T05:17:50;20.40;39.20
38325;DHT22;24126;52.672;13.622;2023-06-04T05:20:18;20.30;39.30
38325;DHT22;24126;52.672;13.622;2023-06-04T05:22:47;20.30;40.30
38325;DHT22;24126;52.672;13.622;2023-06-04T05:25:16;20.20;40.30
38325;DHT22;24126;52.672;13.622;2023-06-04T05:27:43;20.20;40.10
38325;DHT22;24126;52.672;13.622;2023-06-04T05:30:11;20.20;40.20
38325;DHT22;24126;52.672;13.622;2023-06-04T05:32:39;20.30;40.50
38325;DHT22;24126;52.672;13.622;2023-06-04T05:35:08;20.30;40.10
38325;DHT22;24126;52.672;13.622;2023-06-04T05:37:37;20.40;39.50
38325;DHT22;24126;52.672;13.622;2023-06-04T05:40:07;20.30;39.30
38325;DHT22;24126;52.672;13.622;2023-06-04T05:42:35;20.30;40.00
38325;DHT22;24126;52.672;13.622;2023-06-04T05:45:02;20.40;40.20
38325;DHT22;24126;52.672;13.622;2023-06-04T05:47:30;20.50;40.00
38325;DHT22;24126;52.672;13.622;2023-06-04T05:49:58;20.70;40.00
38325;DHT22;24126;52.672;13.622;2023-06-04T05:52:25;20.90;39.40
38325;DHT22;24126;52.672;13.622;2023-06-04T05:54:52;21.00;38.80
38325;DHT22;24126;52.672;13.622;2023-06-04T05:57:19;21.10;38.20
38325;DHT22;24126;52.672;13.622;2023-06-04T05:59:46;21.10;38.70
38325;DHT22;24126;52.672;13.622;2023-06-04T06:02:16;21.20;37.90
38325;DHT22;24126;52.672;13.622;2023-06-04T06:04:43;21.30;37.30
38325;DHT22;24126;52.672;13.622;2023-06-04T06:07:10;21.30;37.70
38325;DHT22;24126;52.672;13.622;2023-06-04T06:09:37;21.50;37.90
38325;DHT22;24126;52.672;13.622;2023-06-04T06:12:05;21.70;37.60
38325;DHT22;24126;52.672;13.622;2023-06-04T06:14:34;21.90;37.10
38325;DHT22;24126;52.672;13.622;2023-06-04T06:17:02;22.10;36.90
38325;DHT22;24126;52.672;13.622;2023-06-04T06:19:30;22.20;36.30
38325;DHT22;24126;52.672;13.622;2023-06-04T06:21:57;22.30;36.20
38325;DHT22;24126;52.672;13.622;2023-06-04T06:24:26;22.40;35.80
38325;DHT22;24126;52.672;13.622;2023-06-04T06:26:53;22.60;36.20
38325;DHT22;24126;52.672;13.622;2023-06-04T06:29:20;22.70;35.10
38325;DHT22;24126;52.672;13.622;2023-06-04T06:31:49;22.80;34.40
38325;DHT22;24126;52.672;13.622;2023-06-04T06:34:16;22.90;34.30
38325;DHT22;24126;52.672;13.622;2023-06-04T06:36:43;23.00;34.70
38325;DHT22;24126;52.672;13.622;2023-06-04T06:39:10;23.20;34.40
38325;DHT22;24126;52.672;13.622;2023-06-04T06:41:37;23.30;33.00
38325;DHT22;24126;52.672;13.622;2023-06-04T06:44:06;23.40;33.20
38325;DHT22;24126;52.672;13.622;2023-06-04T06:46:33;23.50;33.60
38325;DHT22;24126;52.672;13.622;2023-06-04T06:49:01;23.60;33.60
38325;DHT22;24126;52.672;13.622;2023-06-04T06:51:28;23.70;33.00
38325;DHT22;24126;52.672;13.622;2023-06-04T06:53:55;23.80;32.90
38325;DHT22;24126;52.672;13.622;2023-06-04T06:56:22;23.90;32.80
38325;DHT22;24126;52.672;13.622;2023-06-04T06:58:49;24.00;33.20
38325;DHT22;24126;52.672;13.622;2023-06-04T07:01:17;24.20;31.90
38325;DHT22;24126;52.672;13.622;2023-06-04T07:03:44;24.30;31.50
38325;DHT22;24126;52.672;13.622;2023-06-04T07:06:11;24.50;31.60
38325;DHT22;24126;52.672;13.622;2023-06-04T07:08:39;24.60;31.80
38325;DHT22;24126;52.672;13.622;2023-06-04T07:11:06;24.80;31.70
38325;DHT22;24126;52.672;13.622;2023-06-04T07:13:40;24.90;31.80
38325;DHT22;24126;52.672;13.622;2023-06-04T07:16:07;25.10;31.40
38325;DHT22;24126;52.672;13.622;2023-06-04T07:18:34;25.20;30.40
38325;DHT22;24126;52.672;13.622;2023-06-04T07:21:01;25.30;30.00
38325;DHT22;24126;52.672;13.622;2023-06-04T07:23:28;25.50;29.60
38325;DHT22;24126;52.672;13.622;2023-06-04T07:25:55;25.60;29.20
38325;DHT22;24126;52.672;13.622;2023-06-04T07:28:22;25.60;29.20
38325;DHT22;24126;52.672;13.622;2023-06-04T07:30:50;25.70;29.30
38325;DHT22;24126;52.672;13.622;2023-06-04T07:33:17;25.80;29.30
38325;DHT22;24126;52.672;13.622;2023-06-04T07:35:44;26.00;27.80
38325;DHT22;24126;52.672;13.622;2023-06-04T07:38:11;26.00;28.20
38325;DHT22;24126;52.672;13.622;2023-06-04T07:40:38;26.00;28.70
38325;DHT22;24126;52.672;13.622;2023-06-04T07:43:05;26.10;28.60
38325;DHT22;24126;52.672;13.622;2023-06-04T07:45:32;26.20;28.90
38325;DHT22;24126;52.672;13.622;2023-06-04T07:47:59;26.30;28.20
38325;DHT22;24126;52.672;13.622;2023-06-04T07:50:26;26.50;27.80
38325;DHT22;24126;52.672;13.622;2023-06-04T07:52:53;26.70;28.10
38325;DHT22;24126;52.672;13.622;2023-06-04T07:55:21;26.90;28.20
38325;DHT22;24126;52.672;13.622;2023-06-04T07:57:48;27.20;28.00
38325;DHT22;24126;52.672;13.622;2023-06-04T08:00:16;27.40;27.80
38325;DHT22;24126;52.672;13.622;2023-06-04T08:02:44;27.60;27.50
38325;DHT22;24126;52.672;13.622;2023-06-04T08:05:11;27.80;27.10
38325;DHT22;24126;52.672;13.622;2023-06-04T08:07:40;27.90;27.40
38325;DHT22;24126;52.672;13.622;2023-06-04T08:10:07;28.00;27.00
38325;DHT22;24126;52.672;13.622;2023-06-04T08:12:34;28.10;26.90
38325;DHT22;24126;52.672;13.622;2023-06-04T08:15:01;28.10;26.40
38325;DHT22;24126;52.672;13.622;2023-06-04T08:17:34;28.10;26.30
38325;DHT22;24126;52.672;13.622;2023-06-04T08:20:04;28.20;26.40
38325;DHT22;24126;52.672;13.622;2023-06-04T08:22:54;28.30;25.90
38325;DHT22;24126;52.672;13.622;2023-06-04T08:25:26;28.50;25.80
38325;DHT22;24126;52.672;13.622;2023-06-04T08:28:13;28.50;24.70
38325;DHT22;24126;52.672;13.622;2023-06-04T08:30:55;28.30;24.40
38325;DHT22;24126;52.672;13.622;2023-06-04T08:33:38;28.20;24.30
38325;DHT22;24126;52.672;13.622;2023-06-04T08:36:08;28.20;24.80
38325;DHT22;24126;52.672;13.622;2023-06-04T08:38:35;28.20;25.40
38325;DHT22;24126;52.672;13.622;2023-06-04T08:41:07;28.20;25.70
38325;DHT22;24126;52.672;13.622;2023-06-04T08:43:36;28.30;25.20
38325;DHT22;24126;52.672;13.622;2023-06-04T08:46:06;28.40;25.30
38325;DHT22;24126;52.672;13.622;2023-06-04T08:48:34;28.40;25.40
38325;DHT22;24126;52.672;13.622;2023-06-04T08:51:02;28.50;25.40
38325;DHT22;24126;52.672;13.622;2023-06-04T08:53:33;28.50;25.70
38325;DHT22;24126;52.672;13.622;2023-06-04T08:56:00;28.60;25.50
38325;DHT22;24126;52.672;13.622;2023-06-04T08:58:29;28.60;25.20
38325;DHT22;24126;52.672;13.622;2023-06-04T09:00:57;28.70;25.10
38325;DHT22;24126;52.672;13.622;2023-06-04T09:03:25;28.70;24.70
38325;DHT22;24126;52.672;13.622;2023-06-04T09:05:52;28.70;24.50
38325;DHT22;24126;52.672;13.622;2023-06-04T09:08:21;28.80;24.70
38325;DHT22;24126;52.672;13.622;2023-06-04T09:10:49;29.20;24.10
38325;DHT22;24126;52.672;13.622;2023-06-04T09:13:18;29.30;23.90
38325;DHT22;24126;52.672;13.622;2023-06-04T09:15:45;29.30;24.00
38325;DHT22;24126;52.672;13.622;2023-06-04T09:18:12;29.30;23.80
38325;DHT22;24126;52.672;13.622;2023-06-04T09:20:39;29.40;23.50
38325;DHT22;24126;52.672;13.622;2023-06-04T09:23:15;29.30;23.50
38325;DHT22;24126;52.672;13.622;2023-06-04T09:25:43;29.30;23.20
38325;DHT22;24126;52.672;13.622;2023-06-04T09:28:10;29.30;23.30
38325;DHT22;24126;52.672;13.622;2023-06-04T09:30:37;29.20;23.00
38325;DHT22;24126;52.672;13.622;2023-06-04T09:33:08;29.20;23.00
38325;DHT22;24126;52.672;13.622;2023-06-04T09:35:35;29.20;22.80
38325;DHT22;24126;52.672;13.622;2023-06-04T09:38:04;29.10;23.50
38325;DHT22;24126;52.672;13.622;2023-06-04T09:40:35;28.90;23.60
38325;DHT22;24126;52.672;13.622;2023-06-04T09:43:03;28.90;23.30
38325;DHT22;24126;52.672;13.622;2023-06-04T09:45:30;29.00;24.20
38325;DHT22;24126;52.672;13.622;2023-06-04T09:47:58;29.20;23.80
38325;DHT22;24126;52.672;13.622;2023-06-04T09:50:26;29.30;23.70
38325;DHT22;24126;52.672;13.622;2023-06-04T09:52:53;29.40;24.30
38325;DHT22;24126;52.672;13.622;2023-06-04T09:55:21;29.60;24.00
38325;DHT22;24126;52.672;13.622;2023-06-04T09:57:48;29.60;23.80
38325;DHT22;24126;52.672;13.622;2023-06-04T10:00:17;29.70;23.30
38325;DHT22;24126;52.672;13.622;2023-06-04T10:02:44;29.80;22.80
38325;DHT22;24126;52.672;13.622;2023-06-04T10:05:12;29.80;22.60
38325;DHT22;24126;52.672;13.622;2023-06-04T10:07:42;29.80;22.90
38325;DHT22;24126;52.672;13.622;2023-06-04T10:10:11;29.70;22.20
38325;DHT22;24126;52.672;13.622;2023-06-04T10:12:38;29.70;22.30
38325;DHT22;24126;52.672;13.622;2023-06-04T10:15:06;29.60;22.60
38325;DHT22;24126;52.672;13.622;2023-06-04T10:17:34;29.70;23.30
38325;DHT22;24126;52.672;13.622;2023-06-04T10:20:02;29.80;22.70
38325;DHT22;24126;52.672;13.622;2023-06-04T10:22:31;29.90;22.20
38325;DHT22;24126;52.672;13.622;2023-06-04T10:24:59;30.00;22.40
38325;DHT22;24126;52.672;13.622;2023-06-04T10:27:27;30.10;23.10
38325;DHT22;24126;52.672;13.622;2023-06-04T10:29:54;30.10;22.20
38325;DHT22;24126;52.672;13.622;2023-06-04T10:32:21;30.10;22.40
38325;DHT22;24126;52.672;13.622;2023-06-04T10:34:49;30.10;22.20
38325;DHT22;24126;52.672;13.622;2023-06-04T10:37:23;30.10;22.00
38325;DHT22;24126;52.672;13.622;2023-06-04T10:39:50;30.10;21.80
38325;DHT22;24126;52.672;13.622;2023-06-04T10:42:18;30.20;21.90
38325;DHT22;24126;52.672;13.622;2023-06-04T10:44:49;30.30;21.90
38325;DHT22;24126;52.672;13.622;2023-06-04T10:47:24;30.40;22.00
38325;DHT22;24126;52.672;13.622;2023-06-04T10:49:52;30.40;21.90
38325;DHT22;24126;52.672;13.622;2023-06-04T10:52:19;30.50;22.20
38325;DHT22;24126;52.672;13.622;2023-06-04T10:54:47;30.50;22.00
38325;DHT22;24126;52.672;13.622;2023-06-04T10:57:15;30.60;22.70
38325;DHT22;24126;52.672;13.622;2023-06-04T10:59:55;30.70;22.10
38325;DHT22;24126;52.672;13.622;2023-06-04T11:02:22;30.90;22.10
38325;DHT22;24126;52.672;13.622;2023-06-04T11:05:02;31.10;22.00
38325;DHT22;24126;52.672;13.622;2023-06-04T11:07:47;31.10;21.30
38325;DHT22;24126;52.672;13.622;2023-06-04T11:10:15;31.20;22.10
38325;DHT22;24126;52.672;13.622;2023-06-04T11:12:46;31.30;21.90
38325;DHT22;24126;52.672;13.622;2023-06-04T11:15:14;31.30;22.50
38325;DHT22;24126;52.672;13.622;2023-06-04T11:17:48;31.30;22.10
38325;DHT22;24126;52.672;13.622;2023-06-04T11:20:16;31.30;21.60
38325;DHT22;24126;52.672;13.622;2023-06-04T11:22:49;31.30;22.00
38325;DHT22;24126;52.672;13.622;2023-06-04T11:25:16;31.30;21.50
38325;DHT22;24126;52.672;13.622;2023-06-04T11:27:44;31.30;22.00
38325;DHT22;24126;52.672;13.622;2023-06-04T11:30:11;31.30;22.50
38325;DHT22;24126;52.672;13.622;2023-06-04T11:32:39;31.30;22.10
38325;DHT22;24126;52.672;13.622;2023-06-04T11:35:06;31.40;22.60
38325;DHT22;24126;52.672;13.622;2023-06-04T11:37:33;31.50;21.90
38325;DHT22;24126;52.672;13.622;2023-06-04T11:40:01;31.60;21.40
38325;DHT22;24126;52.672;13.622;2023-06-04T11:42:30;31.50;21.50
38325;DHT22;24126;52.672;13.622;2023-06-04T11:44:58;31.50;21.50
38325;DHT22;24126;52.672;13.622;2023-06-04T11:47:25;31.50;21.30
38325;DHT22;24126;52.672;13.622;2023-06-04T11:49:55;31.50;20.60
38325;DHT22;24126;52.672;13.622;2023-06-04T11:52:22;31.40;21.10
38325;DHT22;24126;52.672;13.622;2023-06-04T11:54:50;31.30;21.20
38325;DHT22;24126;52.672;13.622;2023-06-04T11:57:17;31.30;21.10
38325;DHT22;24126;52.672;13.622;2023-06-04T11:59:45;31.40;21.00
38325;DHT22;24126;52.672;13.622;2023-06-04T12:02:12;31.40;21.00
38325;DHT22;24126;52.672;13.622;2023-06-04T12:04:39;31.40;21.50
38325;DHT22;24126;52.672;13.622;2023-06-04T12:07:06;31.50;21.00
38325;DHT22;24126;52.672;13.622;2023-06-04T12:09:34;31.40;21.00
38325;DHT22;24126;52.672;13.622;2023-06-04T12:12:04;31.40;20.90
38325;DHT22;24126;52.672;13.622;2023-06-04T12:14:32;31.40;21.10
38325;DHT22;24126;52.672;13.622;2023-06-04T12:17:00;31.30;20.90
38325;DHT22;24126;52.672;13.622;2023-06-04T12:19:27;31.30;21.30
38325;DHT22;24126;52.672;13.622;2023-06-04T12:21:58;31.20;20.90
38325;DHT22;24126;52.672;13.622;2023-06-04T12:24:26;31.10;20.50
38325;DHT22;24126;52.672;13.622;2023-06-04T12:27:00;31.00;20.80
38325;DHT22;24126;52.672;13.622;2023-06-04T12:29:28;30.90;21.10
38325;DHT22;24126;52.672;13.622;2023-06-04T12:32:29;30.90;21.10
38325;DHT22;24126;52.672;13.622;2023-06-04T12:34:48;30.90;21.50
38325;DHT22;24126;52.672;13.622;2023-06-04T12:37:15;31.00;21.90
38325;DHT22;24126;52.672;13.622;2023-06-04T12:39:43;31.10;21.50
38325;DHT22;24126;52.672;13.622;2023-06-04T12:42:10;31.10;21.70
38325;DHT22;24126;52.672;13.622;2023-06-04T12:44:38;31.20;21.60
38325;DHT22;24126;52.672;13.622;2023-06-04T12:47:06;31.20;22.20
38325;DHT22;24126;52.672;13.622;2023-06-04T12:49:33;31.20;21.20
38325;DHT22;24126;52.672;13.622;2023-06-04T12:52:00;31.10;21.70
38325;DHT22;24126;52.672;13.622;2023-06-04T12:54:28;31.20;21.80
38325;DHT22;24126;52.672;13.622;2023-06-04T12:56:55;31.10;22.20
38325;DHT22;24126;52.672;13.622;2023-06-04T12:59:23;31.10;22.50
38325;DHT22;24126;52.672;13.622;2023-06-04T13:01:51;31.10;22.00
38325;DHT22;24126;52.672;13.622;2023-06-04T13:04:18;31.10;21.30
38325;DHT22;24126;52.672;13.622;2023-06-04T13:06:45;31.00;21.70
38325;DHT22;24126;52.672;13.622;2023-06-04T13:09:12;30.90;22.00
38325;DHT22;24126;52.672;13.622;2023-06-04T13:11:41;30.80;21.70
38325;DHT22;24126;52.672;13.622;2023-06-04T13:14:09;30.60;21.80
38325;DHT22;24126;52.672;13.622;2023-06-04T13:16:40;30.40;21.90
38325;DHT22;24126;52.672;13.622;2023-06-04T13:19:07;30.30;22.20
38325;DHT22;24126;52.672;13.622;2023-06-04T13:21:34;30.20;22.20
38325;DHT22;24126;52.672;13.622;2023-06-04T13:24:02;30.20;22.00
38325;DHT22;24126;52.672;13.622;2023-06-04T13:26:29;30.20;22.00
38325;DHT22;24126;52.672;13.622;2023-06-04T13:28:56;30.10;22.00
38325;DHT22;24126;52.672;13.622;2023-06-04T13:31:23;30.10;21.80
38325;DHT22;24126;52.672;13.622;2023-06-04T13:33:50;30.10;21.90
38325;DHT22;24126;52.672;13.622;2023-06-04T13:36:17;30.10;22.00
38325;DHT22;24126;52.672;13.622;2023-06-04T13:38:44;30.10;21.70
38325;DHT22;24126;52.672;13.622;2023-06-04T13:41:11;30.00;21.50
38325;DHT22;24126;52.672;13.622;2023-06-04T13:43:38;29.90;22.00
38325;DHT22;24126;52.672;13.622;2023-06-04T13:46:05;29.90;21.90
38325;DHT22;24126;52.672;13.622;2023-06-04T13:48:32;29.80;22.10
38325;DHT22;24126;52.672;13.622;2023-06-04T13:50:59;29.70;22.10
38325;DHT22;24126;52.672;13.622;2023-06-04T13:53:26;29.70;22.10
38325;DHT22;24126;52.672;13.622;2023-06-04T13:55:53;29.60;21.90
38325;DHT22;24126;52.672;13.622;2023-06-04T13:58:24;29.50;22.10
38325;DHT22;24126;52.672;13.622;2023-06-04T14:00:51;29.40;22.10
38325;DHT22;24126;52.672;13.622;2023-06-04T14:03:18;29.30;22.50
38325;DHT22;24126;52.672;13.622;2023-06-04T14:05:46;29.20;22.40
38325;DHT22;24126;52.672;13.622;2023-06-04T14:08:13;29.20;22.30
38325;DHT22;24126;52.672;13.622;2023-06-04T14:10:40;29.10;22.10
38325;DHT22;24126;52.672;13.622;2023-06-04T14:13:08;29.00;22.50
38325;DHT22;24126;52.672;13.622;2023-06-04T14:15:35;29.00;22.20
38325;DHT22;24126;52.672;13.622;2023-06-04T14:18:03;28.90;22.40
38325;DHT22;24126;52.672;13.622;2023-06-04T14:20:30;28.90;22.60
38325;DHT22;24126;52.672;13.622;2023-06-04T14:22:57;29.00;23.10
38325;DHT22;24126;52.672;13.622;2023-06-04T14:25:25;29.00;23.00
38325;DHT22;24126;52.672;13.622;2023-06-04T14:27:53;29.10;22.80
38325;DHT22;24126;52.672;13.622;2023-06-04T14:30:20;29.20;23.10
38325;DHT22;24126;52.672;13.622;2023-06-04T14:32:47;29.20;22.70
38325;DHT22;24126;52.672;13.622;2023-06-04T14:35:14;29.20;22.20
38325;DHT22;24126;52.672;13.622;2023-06-04T14:37:41;29.10;22.10
38325;DHT22;24126;52.672;13.622;2023-06-04T14:40:08;29.00;22.30
38325;DHT22;24126;52.672;13.622;2023-06-04T14:42:35;28.90;22.20
38325;DHT22;24126;52.672;13.622;2023-06-04T14:45:03;28.70;22.30
38325;DHT22;24126;52.672;13.622;2023-06-04T14:47:30;28.60;22.50
38325;DHT22;24126;52.672;13.622;2023-06-04T14:49:57;28.60;22.50
38325;DHT22;24126;52.672;13.622;2023-06-04T14:52:24;28.60;22.80
38325;DHT22;24126;52.672;13.622;2023-06-04T14:54:51;28.60;23.10
38325;DHT22;24126;52.672;13.622;2023-06-04T14:57:18;28.60;22.80
38325;DHT22;24126;52.672;13.622;2023-06-04T14:59:47;28.60;22.80
38325;DHT22;24126;52.672;13.622;2023-06-04T15:02:14;28.60;22.90
38325;DHT22;24126;52.672;13.622;2023-06-04T15:04:45;28.60;22.80
38325;DHT22;24126;52.672;13.622;2023-06-04T15:07:12;28.60;22.80
38325;DHT22;24126;52.672;13.622;2023-06-04T15:09:39;28.60;23.10
38325;DHT22;24126;52.672;13.622;2023-06-04T15:12:06;28.50;22.70
38325;DHT22;24126;52.672;13.622;2023-06-04T15:14:33;28.50;23.20
38325;DHT22;24126;52.672;13.622;2023-06-04T15:17:00;28.50;23.40
38325;DHT22;24126;52.672;13.622;2023-06-04T15:19:27;28.50;23.30
38325;DHT22;24126;52.672;13.622;2023-06-04T15:21:55;28.50;23.30
38325;DHT22;24126;52.672;13.622;2023-06-04T15:24:22;28.50;23.30
38325;DHT22;24126;52.672;13.622;2023-06-04T15:26:49;28.40;23.00